Terminal Aerodrome Forecast
Issued by NWS

Home | Current Version | Previous Version | Text Only | Print | Product List | Glossary Off
Versions: 1 2 3 4 5 6 7 8 9 10 11 12 13 14 15 16 17 18 19 20 21 22

000
FTUS43 KICT 221722
TAFRSL
TAF
KRSL 221722Z 2218/2318 12011KT P6SM OVC035
     FM222100 13012KT P6SM OVC030
     FM230100 14012KT P6SM OVC020
     FM230600 15013KT 6SM BR OVC010
     FM231000 16014G20KT 4SM -DZ BR OVC005
     FM231300 16015G22KT 2SM -DZ BR OVC003
     FM231500 17018G26KT P6SM OVC010=

USA.gov is the U.S. government's official web portal to all federal, state and local government web resources and services.